createdAt,value
2022-08-29T00:00:50.596Z,10.65
2022-08-29T00:03:21.109Z,10.27
2022-08-29T00:05:50.399Z,10.63
2022-08-29T00:08:19.343Z,9.75
2022-08-29T00:10:48.413Z,10.00
2022-08-29T00:13:17.750Z,9.57
2022-08-29T00:15:46.588Z,10.55
2022-08-29T00:18:16.331Z,10.27
2022-08-29T00:20:47.704Z,9.75
2022-08-29T00:23:16.580Z,9.38
2022-08-29T00:25:45.463Z,9.18
2022-08-29T00:28:14.506Z,9.15
2022-08-29T00:30:43.786Z,9.63
2022-08-29T00:33:12.679Z,9.07
2022-08-29T00:35:44.108Z,8.82
2022-08-29T00:38:18.267Z,10.20
2022-08-29T00:40:51.783Z,11.15
2022-08-29T00:43:24.826Z,11.35
2022-08-29T00:46:04.047Z,10.73
2022-08-29T00:48:35.561Z,10.85
2022-08-29T00:51:09.359Z,10.02
2022-08-29T00:53:42.897Z,9.95
2022-08-29T00:56:14.154Z,10.18
2022-08-29T00:58:49.798Z,11.23
2022-08-29T01:01:18.975Z,10.52
2022-08-29T01:03:48.646Z,10.63
2022-08-29T01:06:17.916Z,10.60
2022-08-29T01:08:48.980Z,10.70
2022-08-29T01:11:46.491Z,9.98
2022-08-29T01:14:16.106Z,10.10
2022-08-29T01:16:47.121Z,10.40
2022-08-29T01:19:30.471Z,10.23
2022-08-29T01:22:10.033Z,10.65
2022-08-29T01:24:44.026Z,10.23
2022-08-29T01:27:14.070Z,10.00
2022-08-29T01:29:43.570Z,10.63
2022-08-29T01:32:13.126Z,10.45
2022-08-29T01:34:43.128Z,11.48
2022-08-29T01:37:14.732Z,10.90
2022-08-29T01:39:46.292Z,11.25
2022-08-29T01:42:17.512Z,11.55
2022-08-29T01:44:51.179Z,11.43
2022-08-29T01:47:22.648Z,11.38
2022-08-29T01:49:52.018Z,12.35
2022-08-29T01:52:20.988Z,12.30
2022-08-29T01:54:51.369Z,11.77
2022-08-29T01:57:20.456Z,12.73
2022-08-29T01:59:49.662Z,11.40
2022-08-29T02:02:21.024Z,11.45
2022-08-29T02:04:51.423Z,12.02
2022-08-29T02:07:25.555Z,11.32
2022-08-29T02:09:56.356Z,11.65
2022-08-29T02:12:26.441Z,11.73
2022-08-29T02:14:56.008Z,12.07
2022-08-29T02:17:24.995Z,13.98
2022-08-29T02:19:53.878Z,12.05
2022-08-29T02:22:22.695Z,12.10
2022-08-29T02:24:51.606Z,10.68
2022-08-29T02:27:21.864Z,11.60
2022-08-29T02:29:50.775Z,10.73
2022-08-29T02:32:19.695Z,10.68
2022-08-29T02:34:48.796Z,11.13
2022-08-29T02:37:18.234Z,10.25
2022-08-29T02:39:47.106Z,9.27
2022-08-29T02:42:15.928Z,8.55
2022-08-29T02:44:46.204Z,10.02
2022-08-29T02:47:15.055Z,9.77
2022-08-29T02:49:44.000Z,9.63
2022-08-29T02:52:13.115Z,10.65
2022-08-29T02:54:42.014Z,12.50
2022-08-29T02:57:10.886Z,12.50
2022-08-29T02:59:39.686Z,13.35
2022-08-29T03:02:09.976Z,12.20
2022-08-29T03:04:38.935Z,12.25
2022-08-29T03:07:07.705Z,10.93
2022-08-29T03:09:36.666Z,10.98
2022-08-29T03:12:05.907Z,10.48
2022-08-29T03:14:34.806Z,9.73
2022-08-29T03:17:03.643Z,10.48
2022-08-29T03:19:37.330Z,10.38
2022-08-29T03:22:07.777Z,10.15
2022-08-29T03:24:37.177Z,10.15
2022-08-29T03:27:06.557Z,10.15
2022-08-29T03:29:35.408Z,10.63
2022-08-29T03:32:05.246Z,10.02
2022-08-29T03:34:35.676Z,10.57
2022-08-29T03:37:04.608Z,10.43
2022-08-29T03:39:36.525Z,10.70
2022-08-29T03:42:05.844Z,11.10
2022-08-29T03:44:35.139Z,10.68
2022-08-29T03:47:04.058Z,9.95
2022-08-29T03:49:32.841Z,10.82
2022-08-29T03:52:04.007Z,10.52
2022-08-29T03:54:33.097Z,10.43
2022-08-29T03:57:01.883Z,9.88
2022-08-29T03:59:32.086Z,10.77
2022-08-29T04:02:01.004Z,10.63
2022-08-29T04:04:47.447Z,10.05
2022-08-29T04:07:17.867Z,9.60
2022-08-29T04:09:46.703Z,9.90
2022-08-29T04:12:15.671Z,9.60
2022-08-29T04:14:44.428Z,10.32
2022-08-29T04:17:13.478Z,10.02
2022-08-29T04:19:42.368Z,10.15
2022-08-29T04:22:11.147Z,10.73
2022-08-29T04:24:41.327Z,10.40
2022-08-29T04:27:10.068Z,9.93
2022-08-29T04:29:39.270Z,9.77
2022-08-29T04:32:08.379Z,9.98
2022-08-29T04:34:37.601Z,9.63
2022-08-29T04:37:06.430Z,10.55
2022-08-29T04:39:36.302Z,10.18
2022-08-29T04:42:06.747Z,10.13
2022-08-29T04:44:35.788Z,10.77
2022-08-29T04:47:04.828Z,9.48
2022-08-29T04:49:33.588Z,10.10
2022-08-29T04:52:02.374Z,9.90
2022-08-29T04:54:31.153Z,10.85
2022-08-29T04:57:03.495Z,11.38
2022-08-29T04:59:35.430Z,10.18
2022-08-29T05:02:04.415Z,9.90
2022-08-29T05:04:33.398Z,10.70
2022-08-29T05:07:02.131Z,10.00
2022-08-29T05:09:30.907Z,9.75
2022-08-29T05:11:59.720Z,10.73
2022-08-29T05:14:28.533Z,9.68
2022-08-29T05:16:58.757Z,9.65
2022-08-29T05:19:27.471Z,9.20
2022-08-29T05:22:03.253Z,9.32
2022-08-29T05:24:34.376Z,9.48
2022-08-29T05:27:03.532Z,9.85
2022-08-29T05:29:32.427Z,8.88
2022-08-29T05:32:02.612Z,8.70
2022-08-29T05:34:34.866Z,8.80
2022-08-29T05:37:05.530Z,9.55
2022-08-29T05:39:34.839Z,8.80
2022-08-29T05:42:03.992Z,8.45
2022-08-29T05:44:35.530Z,8.45
2022-08-29T05:47:07.144Z,8.60
2022-08-29T05:49:37.517Z,8.40
2022-08-29T05:52:07.494Z,8.30
2022-08-29T05:54:39.017Z,8.93
2022-08-29T05:57:09.072Z,9.43
2022-08-29T05:59:38.491Z,8.90
2022-08-29T06:02:12.131Z,8.52
2022-08-29T06:04:41.487Z,8.32
2022-08-29T06:07:11.812Z,9.20
2022-08-29T06:09:42.333Z,8.63
2022-08-29T06:12:13.825Z,7.80
2022-08-29T06:14:50.222Z,8.35
2022-08-29T06:17:21.424Z,7.40
2022-08-29T06:19:52.914Z,8.13
2022-08-29T06:22:22.759Z,8.73
2022-08-29T06:24:55.206Z,8.88
2022-08-29T06:27:26.677Z,8.40
2022-08-29T06:29:58.179Z,8.65
2022-08-29T06:32:31.805Z,9.55
2022-08-29T06:35:00.822Z,9.23
2022-08-29T06:37:29.587Z,9.70
2022-08-29T06:39:58.473Z,9.93
2022-08-29T06:42:28.733Z,11.18
2022-08-29T06:44:58.083Z,10.35
2022-08-29T06:47:27.014Z,9.48
2022-08-29T06:49:57.432Z,9.30
2022-08-29T06:52:28.017Z,10.15
2022-08-29T06:54:57.051Z,9.05
2022-08-29T06:57:27.310Z,9.40
2022-08-29T06:59:56.339Z,9.45
2022-08-29T07:02:25.390Z,9.57
2022-08-29T07:04:54.267Z,8.80
2022-08-29T07:07:24.677Z,10.38
2022-08-29T07:09:53.533Z,9.07
2022-08-29T07:12:23.245Z,9.32
2022-08-29T07:14:56.348Z,9.30
2022-08-29T07:17:25.769Z,7.97
2022-08-29T07:19:55.526Z,8.20
2022-08-29T07:22:26.440Z,8.82
2022-08-29T07:24:56.145Z,8.40
2022-08-29T07:27:25.114Z,8.43
2022-08-29T07:29:54.150Z,8.25
2022-08-29T07:32:25.894Z,8.00
2022-08-29T07:34:56.294Z,7.97
2022-08-29T07:37:26.774Z,7.90
2022-08-29T07:39:55.817Z,9.60
2022-08-29T07:42:24.706Z,9.93
2022-08-29T07:44:53.581Z,9.52
2022-08-29T07:47:22.685Z,9.38
2022-08-29T07:49:51.566Z,9.35
2022-08-29T07:52:20.574Z,9.20
2022-08-29T07:54:50.835Z,8.93
2022-08-29T07:57:20.157Z,10.48
2022-08-29T07:59:49.114Z,9.60
2022-08-29T08:02:18.266Z,9.23
2022-08-29T08:04:47.454Z,8.88
2022-08-29T08:07:21.355Z,8.95
2022-08-29T08:10:00.125Z,8.70
2022-08-29T08:12:29.565Z,8.05
2022-08-29T08:14:58.903Z,7.75
2022-08-29T08:17:28.015Z,7.93
2022-08-29T08:19:56.825Z,8.68
2022-08-29T08:22:25.636Z,8.57
2022-08-29T08:24:54.396Z,8.48
2022-08-29T08:27:24.709Z,8.32
2022-08-29T08:29:53.517Z,10.00
2022-08-29T08:32:24.445Z,9.82
2022-08-29T08:35:01.964Z,9.57
2022-08-29T08:37:30.794Z,9.50
2022-08-29T08:40:00.124Z,9.32
2022-08-29T08:42:42.695Z,9.50
2022-08-29T08:45:13.860Z,9.13
2022-08-29T08:47:47.701Z,8.02
2022-08-29T08:50:22.273Z,7.25
2022-08-29T08:52:58.912Z,7.03
2022-08-29T08:55:35.048Z,7.60
2022-08-29T08:58:13.667Z,7.10
2022-08-29T09:00:47.752Z,6.93
2022-08-29T09:03:52.774Z,7.18
2022-08-29T09:06:33.758Z,7.38
2022-08-29T09:09:18.956Z,7.00
2022-08-29T09:11:57.854Z,6.93
2022-08-29T09:14:42.914Z,6.43
2022-08-29T09:17:16.716Z,6.93
2022-08-29T09:19:46.685Z,6.78
2022-08-29T09:22:21.617Z,6.68
2022-08-29T09:24:55.044Z,6.38
2022-08-29T09:27:27.018Z,5.95
2022-08-29T09:30:04.834Z,6.25
2022-08-29T09:32:34.013Z,6.20
2022-08-29T09:35:18.864Z,6.25
2022-08-29T09:37:58.105Z,6.43
2022-08-29T09:40:44.424Z,6.45
2022-08-29T09:43:20.415Z,7.10
2022-08-29T09:46:21.195Z,5.90
2022-08-29T09:48:52.418Z,8.85
2022-08-29T09:51:28.558Z,5.90
2022-08-29T09:54:14.440Z,6.60
2022-08-29T09:56:51.153Z,6.88
2022-08-29T09:59:25.724Z,6.47
2022-08-29T10:02:20.979Z,6.35
2022-08-29T10:04:52.725Z,6.03
2022-08-29T10:07:25.169Z,6.97
2022-08-29T10:10:02.572Z,6.82
2022-08-29T10:12:39.814Z,6.47
2022-08-29T10:15:33.434Z,6.25
2022-08-29T10:18:24.129Z,6.50
2022-08-29T10:21:03.828Z,6.15
2022-08-29T10:23:41.467Z,6.05
2022-08-29T10:26:22.588Z,7.20
2022-08-29T10:28:58.681Z,7.90
2022-08-29T10:31:34.701Z,6.88
2022-08-29T10:34:19.382Z,7.60
2022-08-29T10:36:54.033Z,6.25
2022-08-29T10:39:37.242Z,6.28
2022-08-29T10:42:11.613Z,6.10
2022-08-29T10:44:53.574Z,6.30
2022-08-29T10:47:30.050Z,6.25
2022-08-29T10:50:21.912Z,6.35
2022-08-29T10:53:05.578Z,6.95
2022-08-29T10:55:47.796Z,6.55
2022-08-29T10:58:27.655Z,5.68
2022-08-29T11:01:00.225Z,6.13
2022-08-29T11:03:36.410Z,6.85
2022-08-29T11:06:14.225Z,7.07
2022-08-29T11:08:46.975Z,6.72
2022-08-29T11:11:19.455Z,7.40
2022-08-29T11:13:54.304Z,6.90
2022-08-29T11:16:30.625Z,6.95
2022-08-29T11:19:07.018Z,7.07
2022-08-29T11:21:42.104Z,6.38
2022-08-29T11:24:12.538Z,6.40
2022-08-29T11:26:53.935Z,6.32
2022-08-29T11:29:32.899Z,6.40
2022-08-29T11:32:08.173Z,6.03
2022-08-29T11:34:48.530Z,5.53
2022-08-29T11:37:41.666Z,5.50
2022-08-29T11:40:16.704Z,5.45
2022-08-29T11:42:50.158Z,6.32
2022-08-29T11:45:37.220Z,6.05
2022-08-29T11:48:31.640Z,5.53
2022-08-29T11:51:00.989Z,6.47
2022-08-29T11:53:37.707Z,6.50
2022-08-29T11:56:31.233Z,5.95
2022-08-29T11:59:00.593Z,5.93
2022-08-29T12:01:58.793Z,5.82
2022-08-29T12:04:52.642Z,5.63
2022-08-29T12:07:25.571Z,5.63
2022-08-29T12:09:58.854Z,6.05
2022-08-29T12:12:47.506Z,6.05
2022-08-29T12:15:46.052Z,6.78
2022-08-29T12:18:50.906Z,5.85
2022-08-29T12:21:47.436Z,5.70
2022-08-29T12:24:41.900Z,6.38
2022-08-29T12:28:02.889Z,5.85
2022-08-29T12:30:37.332Z,5.82
2022-08-29T12:33:22.055Z,5.95
2022-08-29T12:36:14.060Z,5.63
2022-08-29T12:38:53.790Z,5.50
2022-08-29T12:41:46.880Z,5.45
2022-08-29T12:44:21.898Z,5.43
2022-08-29T12:46:56.448Z,5.30
2022-08-29T12:49:29.808Z,5.75
2022-08-29T12:52:01.309Z,5.13
2022-08-29T12:54:33.750Z,5.00
2022-08-29T12:57:03.228Z,5.13
2022-08-29T12:59:35.388Z,4.90
2022-08-29T13:02:04.279Z,4.80
2022-08-29T13:04:34.052Z,4.38
2022-08-29T13:07:04.990Z,4.55
2022-08-29T13:09:40.339Z,4.60
2022-08-29T13:12:12.819Z,5.07
2022-08-29T13:15:08.120Z,5.20
2022-08-29T13:17:40.538Z,4.18
2022-08-29T13:20:45.964Z,4.60
2022-08-29T13:23:24.511Z,4.68
2022-08-29T13:25:59.844Z,4.93
2022-08-29T13:28:43.655Z,4.57
2022-08-29T13:31:36.419Z,5.15
2022-08-29T13:34:22.095Z,4.68
2022-08-29T13:36:59.497Z,4.45
2022-08-29T13:39:43.751Z,4.55
2022-08-29T13:42:30.654Z,4.45
2022-08-29T13:45:22.038Z,4.30
2022-08-29T13:48:19.108Z,4.57
2022-08-29T13:50:48.423Z,5.18
2022-08-29T13:53:17.260Z,4.72
2022-08-29T13:55:46.152Z,4.47
2022-08-29T13:58:16.059Z,4.00
2022-08-29T14:00:45.146Z,4.05
2022-08-29T14:03:27.269Z,4.25
2022-08-29T14:05:56.901Z,4.13
2022-08-29T14:08:26.501Z,4.40
2022-08-29T14:10:55.366Z,4.40
2022-08-29T14:13:24.327Z,4.25
2022-08-29T14:15:53.272Z,4.85
2022-08-29T14:18:23.558Z,4.13
2022-08-29T14:20:52.437Z,4.30
2022-08-29T14:23:23.269Z,4.00
2022-08-29T14:25:52.324Z,4.30
2022-08-29T14:28:21.158Z,4.40
2022-08-29T14:30:50.058Z,4.32
2022-08-29T14:33:23.814Z,4.20
2022-08-29T14:35:52.848Z,4.78
2022-08-29T14:38:21.718Z,5.10
2022-08-29T14:40:50.654Z,4.70
2022-08-29T14:43:19.656Z,4.85
2022-08-29T14:45:48.567Z,5.03
2022-08-29T14:48:17.687Z,4.97
2022-08-29T14:50:48.077Z,4.93
2022-08-29T14:53:16.896Z,4.40
2022-08-29T14:55:45.697Z,4.28
2022-08-29T14:58:14.798Z,4.75
2022-08-29T15:00:44.247Z,4.38
2022-08-29T15:03:13.108Z,4.40
2022-08-29T15:05:43.897Z,4.53
2022-08-29T15:08:17.277Z,5.10
2022-08-29T15:10:46.366Z,4.70
2022-08-29T15:13:15.425Z,4.40
2022-08-29T15:15:51.625Z,4.43
2022-08-29T15:19:00.642Z,4.22
2022-08-29T15:21:11.214Z,4.20
2022-08-29T15:23:41.522Z,4.70
2022-08-29T15:26:10.347Z,4.63
2022-08-29T15:28:39.535Z,5.63
2022-08-29T15:31:08.679Z,4.50
2022-08-29T15:33:37.501Z,4.78
2022-08-29T15:36:06.625Z,4.72
2022-08-29T15:38:38.265Z,4.07
2022-08-29T15:41:09.082Z,4.72
2022-08-29T15:43:37.949Z,5.65
2022-08-29T15:46:07.648Z,5.25
2022-08-29T15:48:37.609Z,5.47
2022-08-29T15:51:06.586Z,4.82
2022-08-29T15:53:35.524Z,5.00
2022-08-29T15:56:04.376Z,4.30
2022-08-29T15:58:34.667Z,4.68
2022-08-29T16:01:05.083Z,4.75
2022-08-29T16:03:34.205Z,4.38
2022-08-29T16:06:03.117Z,4.50
2022-08-29T16:08:32.167Z,4.40
2022-08-29T16:11:01.278Z,4.32
2022-08-29T16:13:30.266Z,4.25
2022-08-29T16:16:00.652Z,4.15
2022-08-29T16:18:29.675Z,4.30
2022-08-29T16:20:58.599Z,5.07
2022-08-29T16:23:27.686Z,4.30
2022-08-29T16:25:56.510Z,4.15
2022-08-29T16:28:25.466Z,4.25
2022-08-29T16:30:54.420Z,3.85
2022-08-29T16:33:24.758Z,4.30
2022-08-29T16:35:53.894Z,3.83
2022-08-29T16:38:22.775Z,3.85
2022-08-29T16:40:51.773Z,3.55
2022-08-29T16:43:20.623Z,3.65
2022-08-29T16:45:49.600Z,4.00
2022-08-29T16:48:18.613Z,3.75
2022-08-29T16:50:49.781Z,4.03
2022-08-29T16:53:19.499Z,4.00
2022-08-29T16:55:48.456Z,4.35
2022-08-29T16:58:34.674Z,4.03
2022-08-29T17:01:03.766Z,3.90
2022-08-29T17:03:32.820Z,4.20
2022-08-29T17:06:03.150Z,4.38
2022-08-29T17:08:30.890Z,3.92
2022-08-29T17:10:58.796Z,4.03
2022-08-29T17:13:26.369Z,3.80
2022-08-29T17:15:54.890Z,4.38
2022-08-29T17:18:23.961Z,4.20
2022-08-29T17:20:54.275Z,4.82
2022-08-29T17:23:24.618Z,4.53
2022-08-29T17:25:53.695Z,4.45
2022-08-29T17:28:23.020Z,4.72
2022-08-29T17:30:52.131Z,4.65
2022-08-29T17:33:21.726Z,4.43
2022-08-29T17:35:50.718Z,4.78
2022-08-29T17:38:20.216Z,4.97
2022-08-29T17:40:51.598Z,4.45
2022-08-29T17:43:21.061Z,4.95
2022-08-29T17:45:50.261Z,4.80
2022-08-29T17:48:19.596Z,4.55
2022-08-29T17:50:49.056Z,4.88
2022-08-29T17:53:19.875Z,4.93
2022-08-29T17:55:51.320Z,5.53
2022-08-29T17:58:22.010Z,6.15
2022-08-29T18:00:51.802Z,5.55
2022-08-29T18:03:20.843Z,5.22
2022-08-29T18:05:49.685Z,6.20
2022-08-29T18:08:18.649Z,5.53
2022-08-29T18:10:47.725Z,5.85
2022-08-29T18:13:21.592Z,5.70
2022-08-29T18:15:52.684Z,5.72
2022-08-29T18:18:22.205Z,5.85
2022-08-29T18:20:51.236Z,6.30
2022-08-29T18:23:20.104Z,6.13
2022-08-29T18:25:49.225Z,6.30
2022-08-29T18:28:19.746Z,6.35
2022-08-29T18:30:48.706Z,6.35
2022-08-29T18:33:17.644Z,6.22
2022-08-29T18:35:46.744Z,6.25
2022-08-29T18:38:15.992Z,5.90
2022-08-29T18:40:45.182Z,5.68
2022-08-29T18:43:15.549Z,6.60
2022-08-29T18:45:46.031Z,6.18
2022-08-29T18:48:15.006Z,6.05
2022-08-29T18:50:44.649Z,6.32
2022-08-29T18:53:15.817Z,6.07
2022-08-29T18:55:51.165Z,6.60
2022-08-29T18:58:22.731Z,6.68
2022-08-29T19:00:53.613Z,6.88
2022-08-29T19:03:22.911Z,6.28
2022-08-29T19:05:54.127Z,6.40
2022-08-29T19:08:25.949Z,7.38
2022-08-29T19:13:44.229Z,6.90
2022-08-29T19:15:00.817Z,6.85
2022-08-29T19:16:14.644Z,6.85
2022-08-29T19:18:43.720Z,6.60
2022-08-29T19:21:11.520Z,6.97
2022-08-29T19:23:42.629Z,6.50
2022-08-29T19:26:14.509Z,6.78
2022-08-29T19:28:43.651Z,7.18
2022-08-29T19:31:15.039Z,7.40
2022-08-29T19:33:45.319Z,7.15
2022-08-29T19:36:14.893Z,7.13
2022-08-29T19:38:43.749Z,7.72
2022-08-29T19:41:13.243Z,8.23
2022-08-29T19:43:42.522Z,7.93
2022-08-29T19:46:14.528Z,7.95
2022-08-29T19:48:48.606Z,8.05
2022-08-29T19:51:21.708Z,7.57
2022-08-29T19:53:53.788Z,7.53
2022-08-29T19:56:23.298Z,8.27
2022-08-29T19:58:52.219Z,6.85
2022-08-29T20:01:21.585Z,7.20
2022-08-29T20:03:53.600Z,6.82
2022-08-29T20:06:23.392Z,7.50
2022-08-29T20:08:52.319Z,7.40
2022-08-29T20:11:25.050Z,8.13
2022-08-29T20:13:57.029Z,8.10
2022-08-29T20:16:29.662Z,7.90
2022-08-29T20:19:05.499Z,7.63
2022-08-29T20:21:36.029Z,6.60
2022-08-29T20:24:07.743Z,7.22
2022-08-29T20:26:38.259Z,7.00
2022-08-29T20:29:10.698Z,7.00
2022-08-29T20:31:40.457Z,6.38
2022-08-29T20:34:11.698Z,7.10
2022-08-29T20:36:58.115Z,7.32
2022-08-29T20:39:27.152Z,7.05
2022-08-29T20:41:58.892Z,7.20
2022-08-29T20:44:33.994Z,6.97
2022-08-29T20:47:04.230Z,7.10
2022-08-29T20:49:34.941Z,6.45
2022-08-29T20:52:05.088Z,6.72
2022-08-29T20:54:35.474Z,6.57
2022-08-29T20:57:04.388Z,6.25
2022-08-29T20:59:34.549Z,6.43
2022-08-29T21:02:05.057Z,6.60
2022-08-29T21:04:52.564Z,6.03
2022-08-29T21:07:21.952Z,6.43
2022-08-29T21:09:52.234Z,6.22
2022-08-29T21:12:21.833Z,6.07
2022-08-29T21:14:56.424Z,6.60
2022-08-29T21:17:25.393Z,6.88
2022-08-29T21:19:55.751Z,7.05
2022-08-29T21:22:25.272Z,7.05
2022-08-29T21:24:59.000Z,6.60
2022-08-29T21:27:28.561Z,6.18
2022-08-29T21:29:58.327Z,6.57
2022-08-29T21:32:27.362Z,5.85
2022-08-29T21:34:57.971Z,6.05
2022-08-29T21:37:27.023Z,5.90
2022-08-29T21:39:55.964Z,5.78
2022-08-29T21:42:25.462Z,5.68
2022-08-29T21:44:59.403Z,5.90
2022-08-29T21:47:28.442Z,6.18
2022-08-29T21:49:58.701Z,5.80
2022-08-29T21:52:27.742Z,5.35
2022-08-29T21:54:56.592Z,5.85
2022-08-29T21:57:43.046Z,5.40
2022-08-29T22:00:13.415Z,5.05
2022-08-29T22:02:42.561Z,5.80
2022-08-29T22:05:13.591Z,5.30
2022-08-29T22:07:43.053Z,5.50
2022-08-29T22:10:13.944Z,5.25
2022-08-29T22:12:43.016Z,5.50
2022-08-29T22:15:29.616Z,5.90
2022-08-29T22:17:58.489Z,5.75
2022-08-29T22:20:29.261Z,6.03
2022-08-29T22:22:58.057Z,6.68
2022-08-29T22:25:26.956Z,5.78
2022-08-29T22:27:55.781Z,6.05
2022-08-29T22:30:31.932Z,6.43
2022-08-29T22:33:01.531Z,5.82
2022-08-29T22:35:32.206Z,6.40
2022-08-29T22:38:01.085Z,6.60
2022-08-29T22:40:30.369Z,7.30
2022-08-29T22:42:59.416Z,7.10
2022-08-29T22:45:28.277Z,6.30
2022-08-29T22:47:57.129Z,6.20
2022-08-29T22:50:27.310Z,6.40
2022-08-29T22:52:59.850Z,5.88
2022-08-29T22:57:57.480Z,6.57
2022-08-29T23:00:27.660Z,6.65
2022-08-29T23:02:56.605Z,6.32
2022-08-29T23:05:25.750Z,5.97
2022-08-29T23:07:54.677Z,5.57
2022-08-29T23:10:25.110Z,5.90
2022-08-29T23:12:53.888Z,5.63
2022-08-29T23:15:22.870Z,5.60
2022-08-29T23:17:51.711Z,5.95
2022-08-29T23:20:20.649Z,5.72
2022-08-29T23:22:49.559Z,5.45
2022-08-29T23:25:18.425Z,6.05
2022-08-29T23:27:48.766Z,5.60
2022-08-29T23:30:19.266Z,5.50
2022-08-29T23:32:48.241Z,5.13
2022-08-29T23:35:17.260Z,6.13
2022-08-29T23:37:46.099Z,6.13
2022-08-29T23:40:15.035Z,5.90
2022-08-29T23:42:43.932Z,6.40
2022-08-29T23:45:15.572Z,6.05
2022-08-29T23:47:44.461Z,6.03
2022-08-29T23:50:14.389Z,5.78
2022-08-29T23:52:44.258Z,5.75
2022-08-29T23:55:15.332Z,5.93
2022-08-29T23:57:44.687Z,5.45
